createdAt,value
2023-05-17T00:02:25.118Z,15.20
2023-05-17T00:04:53.784Z,15.10
2023-05-17T00:07:22.260Z,15.10
2023-05-17T00:09:49.931Z,15.10
2023-05-17T00:12:20.148Z,15.10
2023-05-17T00:14:48.435Z,15.00
2023-05-17T00:17:17.256Z,15.00
2023-05-17T00:19:44.561Z,15.00
2023-05-17T00:22:11.831Z,15.00
2023-05-17T00:24:39.207Z,14.90
2023-05-17T00:27:07.990Z,14.90
2023-05-17T00:30:28.690Z,14.90
2023-05-17T00:32:59.229Z,14.80
2023-05-17T00:35:27.247Z,14.80
2023-05-17T00:37:54.789Z,14.80
2023-05-17T00:40:22.062Z,14.80
2023-05-17T00:42:50.317Z,14.80
2023-05-17T00:45:17.455Z,14.80
2023-05-17T00:47:45.835Z,14.80
2023-05-17T00:50:16.762Z,14.80
2023-05-17T00:52:48.822Z,14.80
2023-05-17T00:58:34.604Z,14.80
2023-05-17T01:01:04.765Z,14.80
2023-05-17T01:03:32.078Z,14.80
2023-05-17T01:06:01.755Z,14.80
2023-05-17T01:08:30.701Z,14.90
2023-05-17T01:11:18.769Z,14.80
2023-05-17T01:14:22.412Z,14.80
2023-05-17T01:16:57.656Z,14.80
2023-05-17T01:19:59.829Z,14.70
2023-05-17T01:25:59.636Z,14.70
2023-05-17T01:28:33.195Z,14.70
2023-05-17T01:31:04.166Z,14.70
2023-05-17T01:33:34.103Z,14.70
2023-05-17T01:36:01.345Z,14.70
2023-05-17T01:38:28.532Z,14.70
2023-05-17T01:41:16.821Z,14.70
2023-05-17T01:47:08.660Z,14.60
2023-05-17T01:49:44.894Z,14.60
2023-05-17T01:52:36.618Z,14.50
2023-05-17T01:55:10.065Z,14.50
2023-05-17T02:00:40.583Z,14.50
2023-05-17T02:03:12.654Z,14.40
2023-05-17T02:05:41.911Z,14.40
2023-05-17T02:08:09.064Z,14.40
2023-05-17T02:10:36.307Z,14.40
2023-05-17T02:13:03.944Z,14.40
2023-05-17T02:15:31.418Z,14.40
2023-05-17T02:17:59.724Z,14.30
2023-05-17T02:20:26.824Z,14.30
2023-05-17T02:22:53.704Z,14.40
2023-05-17T02:25:21.216Z,14.40
2023-05-17T02:27:48.224Z,14.40
2023-05-17T02:30:18.070Z,14.30
2023-05-17T02:32:45.591Z,14.40
2023-05-17T02:35:14.531Z,14.40
2023-05-17T02:37:41.509Z,14.40
2023-05-17T02:40:10.172Z,14.40
2023-05-17T02:42:38.526Z,14.40
2023-05-17T02:45:05.987Z,14.40
2023-05-17T02:47:33.041Z,14.40
2023-05-17T02:50:01.131Z,14.50
2023-05-17T02:52:28.067Z,14.50
2023-05-17T02:54:55.052Z,14.50
2023-05-17T02:57:22.031Z,14.50
2023-05-17T02:59:49.154Z,14.50
2023-05-17T03:02:16.815Z,14.40
2023-05-17T03:04:43.978Z,14.40
2023-05-17T03:07:11.652Z,14.40
2023-05-17T03:09:39.506Z,14.30
2023-05-17T03:12:07.135Z,14.40
2023-05-17T03:14:35.176Z,14.30
2023-05-17T03:17:02.694Z,14.30
2023-05-17T03:19:30.790Z,14.30
2023-05-17T03:21:57.825Z,14.30
2023-05-17T03:24:25.874Z,14.30
2023-05-17T03:26:52.822Z,14.30
2023-05-17T03:29:19.756Z,14.20
2023-05-17T03:31:47.457Z,14.20
2023-05-17T03:34:15.228Z,14.10
2023-05-17T03:36:43.170Z,14.10
2023-05-17T03:39:10.721Z,14.10
2023-05-17T03:41:40.077Z,14.10
2023-05-17T03:44:07.669Z,14.10
2023-05-17T03:46:34.827Z,14.10
2023-05-17T03:49:01.867Z,14.10
2023-05-17T03:51:30.848Z,14.10
2023-05-17T03:54:01.186Z,14.10
2023-05-17T03:56:29.638Z,14.10
2023-05-17T03:58:56.919Z,14.10
2023-05-17T04:01:24.488Z,14.10
2023-05-17T04:03:51.391Z,14.10
2023-05-17T04:06:20.655Z,14.10
2023-05-17T04:08:47.798Z,14.10
2023-05-17T04:11:14.808Z,14.10
2023-05-17T04:13:43.043Z,14.10
2023-05-17T04:16:10.757Z,14.10
2023-05-17T04:18:41.175Z,14.10
2023-05-17T04:21:09.345Z,14.20
2023-05-17T04:23:37.656Z,14.20
2023-05-17T04:26:06.178Z,14.20
2023-05-17T04:28:36.131Z,14.30
2023-05-17T04:31:08.735Z,14.30
2023-05-17T04:33:37.092Z,14.20
2023-05-17T04:36:05.616Z,14.20
2023-05-17T04:38:33.581Z,14.30
2023-05-17T04:41:04.875Z,14.30
2023-05-17T04:43:34.987Z,14.30
2023-05-17T04:46:06.058Z,14.30
2023-05-17T04:48:33.928Z,14.30
2023-05-17T04:51:03.670Z,14.30
2023-05-17T04:53:31.336Z,14.30
2023-05-17T04:56:00.338Z,14.30
2023-05-17T04:58:27.937Z,14.20
2023-05-17T05:00:58.534Z,14.30
2023-05-17T05:03:26.567Z,14.40
2023-05-17T05:05:54.746Z,14.40
2023-05-17T05:08:22.066Z,14.40
2023-05-17T05:10:49.197Z,14.50
2023-05-17T05:13:18.480Z,14.50
2023-05-17T05:15:45.601Z,14.50
2023-05-17T05:18:12.838Z,14.50
2023-05-17T05:20:39.959Z,14.50
2023-05-17T05:23:07.316Z,14.50
2023-05-17T05:25:38.354Z,14.50
2023-05-17T05:28:06.725Z,14.50
2023-05-17T05:30:38.788Z,14.60
2023-05-17T05:33:07.064Z,14.50
2023-05-17T05:35:36.215Z,14.50
2023-05-17T05:38:03.212Z,14.60
2023-05-17T05:40:30.797Z,14.50
2023-05-17T05:42:57.996Z,14.60
2023-05-17T05:45:24.956Z,14.60
2023-05-17T05:47:54.470Z,14.60
2023-05-17T05:50:21.713Z,14.60
2023-05-17T05:52:51.371Z,14.60
2023-05-17T05:55:18.475Z,14.70
2023-05-17T05:57:46.290Z,14.70
2023-05-17T06:00:13.833Z,14.70
2023-05-17T06:02:40.709Z,14.80
2023-05-17T06:05:08.285Z,14.80
2023-05-17T06:07:35.632Z,14.80
2023-05-17T06:10:02.821Z,14.90
2023-05-17T06:12:29.863Z,15.00
2023-05-17T06:14:56.911Z,15.00
2023-05-17T06:17:24.274Z,15.00
2023-05-17T06:19:52.678Z,15.10
2023-05-17T06:22:20.971Z,15.10
2023-05-17T06:24:48.160Z,15.10
2023-05-17T06:27:15.526Z,15.20
2023-05-17T06:29:42.672Z,15.30
2023-05-17T06:32:09.662Z,15.30
2023-05-17T06:34:36.522Z,15.30
2023-05-17T06:37:03.852Z,15.30
2023-05-17T06:39:30.762Z,15.40
2023-05-17T06:41:57.705Z,15.40
2023-05-17T06:44:24.673Z,15.40
2023-05-17T06:46:51.593Z,15.30
2023-05-17T06:49:18.748Z,15.40
2023-05-17T06:51:45.917Z,15.50
2023-05-17T06:54:12.819Z,15.50
2023-05-17T06:56:39.805Z,15.50
2023-05-17T06:59:06.736Z,15.50
2023-05-17T07:01:33.739Z,15.50
2023-05-17T07:04:00.906Z,15.50
2023-05-17T07:06:27.995Z,15.60
2023-05-17T07:08:55.005Z,15.60
2023-05-17T07:11:21.945Z,15.70
2023-05-17T07:13:50.319Z,15.70
2023-05-17T07:16:18.526Z,15.80
2023-05-17T07:18:45.607Z,15.80
2023-05-17T07:21:12.636Z,15.90
2023-05-17T07:23:39.581Z,15.90
2023-05-17T07:26:06.636Z,15.90
2023-05-17T07:28:33.669Z,16.00
2023-05-17T07:31:01.757Z,16.00
2023-05-17T07:33:28.788Z,16.00
2023-05-17T07:35:55.762Z,16.00
2023-05-17T07:38:22.709Z,16.10
2023-05-17T07:40:49.766Z,16.10
2023-05-17T07:43:16.800Z,16.20
2023-05-17T07:45:44.044Z,16.30
2023-05-17T07:48:11.254Z,16.40
2023-05-17T07:50:38.378Z,16.60
2023-05-17T07:53:05.942Z,16.80
2023-05-17T07:55:32.913Z,17.00
2023-05-17T07:57:59.906Z,17.20
2023-05-17T08:00:27.028Z,17.30
2023-05-17T08:02:54.026Z,17.50
2023-05-17T08:05:21.213Z,17.60
2023-05-17T08:07:48.405Z,17.70
2023-05-17T08:10:16.695Z,17.70
2023-05-17T08:12:47.092Z,17.80
2023-05-17T08:15:14.144Z,17.90
2023-05-17T08:17:41.622Z,17.90
2023-05-17T08:20:09.765Z,17.90
2023-05-17T08:22:37.108Z,18.00
2023-05-17T08:25:04.721Z,18.10
2023-05-17T08:27:32.404Z,18.00
2023-05-17T08:29:59.870Z,18.00
2023-05-17T08:32:27.493Z,18.00
2023-05-17T08:34:54.982Z,18.00
2023-05-17T08:37:22.057Z,18.00
2023-05-17T08:39:51.638Z,18.00
2023-05-17T08:42:25.654Z,18.00
2023-05-17T08:44:54.993Z,18.10
2023-05-17T08:47:34.031Z,18.20
2023-05-17T08:50:02.475Z,18.10
2023-05-17T08:52:32.949Z,18.10
2023-05-17T08:55:04.026Z,18.20
2023-05-17T08:57:37.518Z,18.30
2023-05-17T09:00:12.669Z,18.40
2023-05-17T09:02:43.243Z,18.50
2023-05-17T09:05:11.243Z,18.60
2023-05-17T09:07:38.407Z,18.60
2023-05-17T09:10:06.098Z,18.70
2023-05-17T09:12:35.115Z,18.80
2023-05-17T09:15:16.435Z,18.70
2023-05-17T09:17:44.407Z,18.80
2023-05-17T09:20:11.755Z,18.90
2023-05-17T09:22:38.942Z,18.90
2023-05-17T09:25:10.774Z,19.00
2023-05-17T09:27:37.861Z,19.00
2023-05-17T09:30:10.596Z,18.80
2023-05-17T09:32:45.809Z,18.90
2023-05-17T09:35:13.725Z,18.90
2023-05-17T09:37:43.418Z,19.00
2023-05-17T09:40:10.746Z,19.10
2023-05-17T09:42:39.224Z,19.20
2023-05-17T09:45:06.566Z,19.30
2023-05-17T09:47:37.567Z,19.30
2023-05-17T09:50:05.594Z,19.40
2023-05-17T09:52:37.069Z,19.70
2023-05-17T09:55:09.510Z,19.70
2023-05-17T09:57:39.076Z,19.80
2023-05-17T10:00:12.440Z,19.80
2023-05-17T10:02:47.236Z,19.90
2023-05-17T10:05:18.496Z,20.10
2023-05-17T10:07:48.041Z,20.10
2023-05-17T10:10:18.379Z,20.20
2023-05-17T10:12:47.151Z,20.30
2023-05-17T10:15:17.897Z,20.30
2023-05-17T10:17:45.811Z,20.20
2023-05-17T10:20:14.853Z,20.20
2023-05-17T10:22:50.562Z,20.20
2023-05-17T10:25:18.156Z,20.20
2023-05-17T10:27:45.570Z,20.10
2023-05-17T10:30:26.920Z,20.10
2023-05-17T10:36:20.163Z,19.90
2023-05-17T10:39:10.114Z,19.90
2023-05-17T10:41:47.468Z,20.00
2023-05-17T10:44:16.844Z,20.10
2023-05-17T10:46:59.146Z,20.20
2023-05-17T10:49:43.212Z,20.30
2023-05-17T10:52:16.240Z,20.30
2023-05-17T10:55:15.073Z,20.30
2023-05-17T10:58:20.142Z,20.10
2023-05-17T11:00:55.635Z,20.30
2023-05-17T11:03:30.198Z,20.30
2023-05-17T11:06:24.694Z,20.40
2023-05-17T11:09:18.475Z,20.40
2023-05-17T11:12:06.368Z,20.40
2023-05-17T11:14:52.107Z,20.40
2023-05-17T11:17:22.027Z,20.50
2023-05-17T11:19:58.795Z,20.50
2023-05-17T11:22:28.018Z,20.50
2023-05-17T11:24:57.779Z,20.60
2023-05-17T11:27:28.834Z,20.60
2023-05-17T11:29:56.810Z,20.70
2023-05-17T11:32:29.047Z,20.80
2023-05-17T11:34:57.131Z,20.90
2023-05-17T11:37:28.625Z,21.00
2023-05-17T11:40:07.247Z,21.10
2023-05-17T11:42:35.803Z,21.30
2023-05-17T11:45:03.181Z,21.40
2023-05-17T11:47:30.577Z,21.60
2023-05-17T11:50:05.417Z,21.70
2023-05-17T11:52:32.655Z,21.80
2023-05-17T11:55:02.548Z,21.70
2023-05-17T11:57:31.180Z,21.70
2023-05-17T12:00:04.033Z,21.70
2023-05-17T12:02:39.614Z,21.50
2023-05-17T12:05:09.379Z,21.40
2023-05-17T12:07:37.744Z,21.30
2023-05-17T12:10:06.636Z,21.20
2023-05-17T12:12:34.051Z,21.10
2023-05-17T12:15:01.275Z,21.10
2023-05-17T12:17:35.642Z,21.00
2023-05-17T12:20:10.187Z,21.00
2023-05-17T12:22:56.733Z,21.00
2023-05-17T12:25:29.658Z,20.90
2023-05-17T12:28:22.928Z,20.90
2023-05-17T12:30:56.780Z,20.90
2023-05-17T12:33:27.833Z,20.90
2023-05-17T12:35:55.157Z,20.90
2023-05-17T12:38:25.173Z,21.00
2023-05-17T12:40:52.556Z,21.10
2023-05-17T12:43:23.153Z,21.20
2023-05-17T12:45:50.815Z,21.20
2023-05-17T12:48:18.079Z,21.30
2023-05-17T12:50:46.477Z,21.40
2023-05-17T12:53:13.533Z,21.50
2023-05-17T12:55:40.594Z,21.60
2023-05-17T12:58:07.640Z,21.70
2023-05-17T13:00:34.869Z,21.90
2023-05-17T13:03:13.072Z,22.00
2023-05-17T13:05:56.698Z,22.00
2023-05-17T13:08:44.250Z,21.90
2023-05-17T13:11:15.380Z,21.70
2023-05-17T13:13:42.457Z,21.80
2023-05-17T13:16:09.566Z,21.70
2023-05-17T13:18:52.556Z,21.50
2023-05-17T13:21:21.410Z,21.60
2023-05-17T13:23:49.891Z,21.60
2023-05-17T13:26:21.556Z,21.60
2023-05-17T13:28:49.105Z,21.70
2023-05-17T13:31:16.141Z,21.80
2023-05-17T13:33:45.387Z,21.80
2023-05-17T13:36:13.272Z,21.80
2023-05-17T13:38:43.901Z,21.60
2023-05-17T13:41:11.086Z,21.60
2023-05-17T13:43:39.027Z,21.60
2023-05-17T13:46:22.751Z,21.70
2023-05-17T13:49:26.845Z,21.70
2023-05-17T13:52:13.994Z,21.50
2023-05-17T13:54:45.462Z,21.80
2023-05-17T14:00:09.786Z,22.40
2023-05-17T14:02:39.632Z,22.50
2023-05-17T14:05:16.283Z,22.50
2023-05-17T14:07:46.730Z,22.40
2023-05-17T14:10:14.353Z,22.50
2023-05-17T14:12:42.172Z,22.30
2023-05-17T14:15:10.741Z,22.10
2023-05-17T14:17:37.998Z,21.90
2023-05-17T14:20:05.846Z,21.70
2023-05-17T14:22:32.962Z,21.60
2023-05-17T14:25:03.284Z,21.50
2023-05-17T14:27:32.893Z,21.50
2023-05-17T14:30:01.677Z,21.30
2023-05-17T14:32:28.793Z,21.30
2023-05-17T14:34:56.301Z,21.30
2023-05-17T14:37:23.389Z,21.30
2023-05-17T14:40:05.767Z,21.30
2023-05-17T14:42:33.422Z,21.40
2023-05-17T14:45:01.322Z,21.40
2023-05-17T14:47:28.377Z,21.50
2023-05-17T14:49:57.761Z,21.50
2023-05-17T14:52:24.848Z,21.30
2023-05-17T14:54:52.250Z,21.30
2023-05-17T14:57:21.493Z,21.20
2023-05-17T14:59:48.610Z,21.20
2023-05-17T15:02:15.794Z,21.20
2023-05-17T15:04:43.185Z,21.20
2023-05-17T15:07:10.480Z,21.10
2023-05-17T15:09:42.532Z,21.10
2023-05-17T15:12:13.865Z,20.90
2023-05-17T15:14:41.686Z,20.80
2023-05-17T15:17:08.832Z,20.80
2023-05-17T15:19:36.452Z,20.60
2023-05-17T15:22:26.106Z,20.60
2023-05-17T15:24:54.361Z,20.60
2023-05-17T15:27:21.554Z,20.60
2023-05-17T15:29:48.544Z,20.60
2023-05-17T15:32:15.977Z,20.50
2023-05-17T15:34:43.121Z,20.40
2023-05-17T15:37:11.097Z,20.40
2023-05-17T15:39:38.333Z,20.30
2023-05-17T15:42:05.989Z,20.40
2023-05-17T15:44:33.144Z,20.40
2023-05-17T15:47:02.331Z,20.40
2023-05-17T15:49:30.256Z,20.40
2023-05-17T15:51:57.452Z,20.40
2023-05-17T15:54:26.298Z,20.20
2023-05-17T15:56:53.381Z,20.20
2023-05-17T15:59:20.406Z,20.10
2023-05-17T16:01:47.386Z,20.00
2023-05-17T16:04:15.987Z,19.90
2023-05-17T16:06:43.320Z,19.90
2023-05-17T16:09:11.802Z,19.80
2023-05-17T16:11:38.828Z,19.80
2023-05-17T16:14:08.773Z,19.80
2023-05-17T16:16:36.341Z,19.70
2023-05-17T16:19:05.754Z,19.70
2023-05-17T16:21:33.649Z,19.70
2023-05-17T16:24:01.515Z,19.60
2023-05-17T16:26:28.735Z,19.60
2023-05-17T16:28:57.376Z,19.50
2023-05-17T16:31:24.577Z,19.50
2023-05-17T16:33:51.894Z,19.50
2023-05-17T16:36:19.044Z,19.40
2023-05-17T16:38:46.038Z,19.40
2023-05-17T16:41:12.956Z,19.40
2023-05-17T16:43:39.970Z,19.40
2023-05-17T16:46:06.977Z,19.30
2023-05-17T16:48:34.228Z,19.30
2023-05-17T16:51:01.193Z,19.30
2023-05-17T16:53:28.381Z,19.30
2023-05-17T16:55:56.092Z,19.30
2023-05-17T16:58:23.013Z,19.20
2023-05-17T17:00:50.037Z,19.30
2023-05-17T17:03:17.114Z,19.20
2023-05-17T17:05:45.448Z,19.20
2023-05-17T17:08:13.422Z,19.20
2023-05-17T17:10:40.580Z,19.20
2023-05-17T17:13:07.787Z,19.20
2023-05-17T17:15:34.819Z,19.20
2023-05-17T17:18:02.036Z,19.20
2023-05-17T17:20:29.210Z,19.20
2023-05-17T17:22:56.362Z,19.20
2023-05-17T17:25:24.804Z,19.20
2023-05-17T17:27:53.214Z,19.30
2023-05-17T17:30:20.698Z,19.30
2023-05-17T17:32:47.750Z,19.30
2023-05-17T17:35:14.833Z,19.40
2023-05-17T17:37:42.001Z,19.40
2023-05-17T17:40:09.728Z,19.40
2023-05-17T17:42:39.843Z,19.50
2023-05-17T17:45:09.463Z,19.50
2023-05-17T17:47:36.581Z,19.50
2023-05-17T17:50:03.778Z,19.50
2023-05-17T17:52:30.847Z,19.50
2023-05-17T17:54:58.525Z,19.40
2023-05-17T17:57:25.823Z,19.40
2023-05-17T17:59:53.581Z,19.30
2023-05-17T18:02:20.634Z,19.30
2023-05-17T18:04:47.657Z,19.20
2023-05-17T18:07:17.986Z,19.10
2023-05-17T18:09:45.439Z,19.10
2023-05-17T18:12:13.764Z,19.00
2023-05-17T18:14:41.047Z,19.00
2023-05-17T18:17:08.238Z,18.90
2023-05-17T18:19:35.421Z,18.90
2023-05-17T18:22:02.824Z,18.80
2023-05-17T18:24:30.389Z,18.70
2023-05-17T18:26:57.690Z,18.60
2023-05-17T18:29:24.767Z,18.60
2023-05-17T18:31:52.192Z,18.50
2023-05-17T18:34:19.482Z,18.50
2023-05-17T18:36:47.408Z,18.40
2023-05-17T18:39:14.496Z,18.40
2023-05-17T18:41:41.576Z,18.30
2023-05-17T18:44:08.507Z,18.30
2023-05-17T18:46:35.559Z,18.30
2023-05-17T18:49:04.243Z,18.20
2023-05-17T18:51:31.859Z,18.10
2023-05-17T18:53:59.389Z,18.00
2023-05-17T18:56:28.240Z,17.90
2023-05-17T18:58:55.415Z,17.80
2023-05-17T19:01:22.572Z,17.80
2023-05-17T19:03:56.863Z,17.70
2023-05-17T19:06:25.141Z,17.70
2023-05-17T19:08:52.101Z,17.70
2023-05-17T19:11:19.422Z,17.70
2023-05-17T19:13:46.428Z,17.70
2023-05-17T19:16:15.716Z,17.70
2023-05-17T19:18:42.815Z,17.70
2023-05-17T19:21:09.912Z,17.60
2023-05-17T19:23:37.109Z,17.60
2023-05-17T19:26:04.002Z,17.50
2023-05-17T19:28:33.102Z,17.50
2023-05-17T19:31:00.254Z,17.50
2023-05-17T19:33:27.412Z,17.50
2023-05-17T19:35:54.758Z,17.50
2023-05-17T19:38:22.177Z,17.50
2023-05-17T19:40:49.635Z,17.50
2023-05-17T19:43:17.039Z,17.50
2023-05-17T19:45:44.299Z,17.50
2023-05-17T19:48:12.114Z,17.40
2023-05-17T19:50:40.528Z,17.40
2023-05-17T19:53:08.106Z,17.30
2023-05-17T19:55:36.409Z,17.30
2023-05-17T19:58:04.054Z,17.20
2023-05-17T20:00:34.499Z,17.20
2023-05-17T20:03:01.707Z,17.20
2023-05-17T20:05:29.223Z,17.20
2023-05-17T20:07:56.816Z,17.20
2023-05-17T20:10:25.051Z,17.20
2023-05-17T20:12:52.008Z,17.20
2023-05-17T20:15:19.967Z,17.20
2023-05-17T20:17:47.838Z,17.20
2023-05-17T20:20:15.021Z,17.20
2023-05-17T20:22:43.770Z,17.20
2023-05-17T20:25:11.111Z,17.10
2023-05-17T20:27:39.979Z,17.10
2023-05-17T20:30:07.678Z,17.10
2023-05-17T20:32:34.864Z,17.00
2023-05-17T20:35:02.073Z,17.00
2023-05-17T20:37:29.102Z,17.00
2023-05-17T20:39:59.340Z,16.90
2023-05-17T20:42:28.196Z,17.00
2023-05-17T20:44:55.770Z,16.90
2023-05-17T20:47:23.022Z,16.90
2023-05-17T20:49:50.472Z,16.90
2023-05-17T20:52:31.273Z,16.90
2023-05-17T20:55:06.045Z,16.90
2023-05-17T20:57:32.998Z,16.90
2023-05-17T20:59:59.961Z,16.90
2023-05-17T21:02:27.052Z,16.80
2023-05-17T21:04:54.767Z,16.80
2023-05-17T21:07:22.664Z,16.80
2023-05-17T21:09:49.698Z,16.80
2023-05-17T21:12:16.779Z,16.80
2023-05-17T21:14:43.730Z,16.80
2023-05-17T21:17:10.800Z,16.90
2023-05-17T21:19:37.881Z,16.80
2023-05-17T21:22:05.883Z,16.80
2023-05-17T21:24:32.893Z,16.90
2023-05-17T21:27:01.202Z,16.80
2023-05-17T21:29:28.368Z,16.70
2023-05-17T21:31:55.447Z,16.70
2023-05-17T21:34:22.524Z,16.70
2023-05-17T21:36:49.459Z,16.70
2023-05-17T21:39:16.574Z,16.70
2023-05-17T21:41:45.016Z,16.70
2023-05-17T21:44:17.069Z,16.70
2023-05-17T21:46:44.063Z,16.70
2023-05-17T21:49:11.298Z,16.70
2023-05-17T21:51:38.311Z,16.70
2023-05-17T21:54:05.558Z,16.70
2023-05-17T21:56:32.604Z,16.70
2023-05-17T21:58:59.555Z,16.70
2023-05-17T22:01:26.706Z,16.70
2023-05-17T22:03:55.411Z,16.70
2023-05-17T22:06:23.568Z,16.70
2023-05-17T22:08:50.639Z,16.70
2023-05-17T22:11:18.458Z,16.60
2023-05-17T22:13:45.401Z,16.60
2023-05-17T22:16:13.949Z,16.60
2023-05-17T22:18:42.070Z,16.50
2023-05-17T22:21:09.228Z,16.60
2023-05-17T22:23:36.163Z,16.60
2023-05-17T22:26:03.217Z,16.60
2023-05-17T22:28:30.338Z,16.60
2023-05-17T22:31:01.707Z,16.50
2023-05-17T22:33:31.753Z,16.50
2023-05-17T22:35:58.894Z,16.50
2023-05-17T22:38:25.917Z,16.50
2023-05-17T22:40:53.179Z,16.40
2023-05-17T22:43:39.415Z,16.40
2023-05-17T22:46:06.912Z,16.40
2023-05-17T22:48:37.363Z,16.40
2023-05-17T22:51:06.535Z,16.40
2023-05-17T22:53:33.605Z,16.40
2023-05-17T22:56:00.773Z,16.40
2023-05-17T22:58:31.350Z,16.40
2023-05-17T23:01:06.151Z,16.40
2023-05-17T23:03:35.893Z,16.50
2023-05-17T23:06:12.380Z,16.50
2023-05-17T23:08:40.015Z,16.50
2023-05-17T23:11:08.806Z,16.50
2023-05-17T23:13:36.537Z,16.50
2023-05-17T23:16:04.403Z,16.50
2023-05-17T23:18:32.982Z,16.50
2023-05-17T23:21:00.697Z,16.50
2023-05-17T23:23:30.043Z,16.50
2023-05-17T23:25:57.495Z,16.50
2023-05-17T23:28:25.375Z,16.50
2023-05-17T23:30:54.584Z,16.50
2023-05-17T23:33:21.818Z,16.40
2023-05-17T23:35:48.998Z,16.40
2023-05-17T23:38:16.077Z,16.40
2023-05-17T23:40:43.837Z,16.40
2023-05-17T23:43:11.948Z,16.40
2023-05-17T23:45:39.490Z,16.30
2023-05-17T23:48:09.919Z,16.30
2023-05-17T23:50:37.381Z,16.30
2023-05-17T23:53:04.741Z,16.30
2023-05-17T23:55:31.904Z,16.20
2023-05-17T23:57:59.140Z,16.20
